createdAt,value
2023-05-11T00:02:02.431Z,73911.00
2023-05-11T00:07:04.000Z,73907.97
2023-05-11T00:12:06.041Z,73906.44
2023-05-11T00:17:07.580Z,73917.13
2023-05-11T00:22:09.068Z,73935.44
2023-05-11T00:27:10.648Z,73929.31
2023-05-11T00:32:12.355Z,73930.84
2023-05-11T00:37:13.916Z,73932.38
2023-05-11T00:42:15.410Z,73920.16
2023-05-11T00:47:17.225Z,73920.16
2023-05-11T00:52:19.606Z,73924.75
2023-05-11T00:57:21.458Z,73920.16
2023-05-11T01:02:23.043Z,73918.66
2023-05-11T01:07:28.710Z,73917.13
2023-05-11T01:12:46.064Z,73920.16
2023-05-11T01:18:01.391Z,73914.06
2023-05-11T01:23:18.501Z,73927.81
2023-05-11T01:28:39.634Z,73927.81
2023-05-11T01:33:51.476Z,73929.31
2023-05-11T01:38:54.723Z,73932.38
2023-05-11T01:44:03.002Z,73935.44
2023-05-11T01:49:09.856Z,73941.53
2023-05-11T01:54:11.888Z,73965.94
2023-05-11T01:59:14.578Z,73959.84
2023-05-11T02:04:19.772Z,73956.78
2023-05-11T02:09:22.554Z,73959.84
2023-05-11T02:14:28.469Z,73965.94
2023-05-11T02:19:32.745Z,73965.94
2023-05-11T02:24:35.603Z,73975.09
2023-05-11T02:29:37.113Z,73978.16
2023-05-11T02:34:41.562Z,73978.16
2023-05-11T02:39:46.417Z,73981.22
2023-05-11T02:44:56.547Z,73984.25
2023-05-11T02:50:01.389Z,73984.25
2023-05-11T02:55:06.479Z,73999.50
2023-05-11T03:00:08.496Z,73999.50
2023-05-11T03:05:10.188Z,74002.56
2023-05-11T03:10:11.879Z,74004.09
2023-05-11T03:15:18.547Z,74014.78
2023-05-11T03:20:24.000Z,74013.25
2023-05-11T03:25:25.998Z,74017.81
2023-05-11T03:30:29.048Z,74026.97
2023-05-11T03:35:34.932Z,74033.09
2023-05-11T03:40:38.317Z,74036.13
2023-05-11T03:45:42.798Z,59042.03
2023-05-11T03:50:44.734Z,74063.59
2023-05-11T03:55:46.258Z,59042.03
2023-05-11T04:00:48.518Z,59042.03
2023-05-11T04:05:50.005Z,74080.38
2023-05-11T04:10:51.621Z,74074.28
2023-05-11T04:15:54.395Z,74063.59
2023-05-11T04:20:56.308Z,74065.13
2023-05-11T04:25:57.848Z,74063.59
2023-05-11T04:30:59.321Z,74062.06
2023-05-11T04:36:01.593Z,74063.59
2023-05-11T04:41:08.167Z,74063.59
2023-05-11T04:46:10.924Z,74054.44
2023-05-11T04:51:12.717Z,74081.91
2023-05-11T04:56:20.011Z,74075.81
2023-05-11T05:01:23.341Z,74075.81
2023-05-11T05:06:24.816Z,74066.66
2023-05-11T05:11:26.357Z,74072.75
2023-05-11T05:16:29.074Z,74072.75
2023-05-11T05:21:32.474Z,74081.91
2023-05-11T05:26:34.078Z,74075.81
2023-05-11T05:31:35.746Z,74080.38
2023-05-11T05:36:39.331Z,74066.66
2023-05-11T05:41:42.930Z,74092.59
2023-05-11T05:46:45.456Z,74088.03
2023-05-11T05:51:47.931Z,74077.34
2023-05-11T05:56:50.366Z,74077.34
2023-05-11T06:01:51.888Z,74078.88
2023-05-11T06:06:53.537Z,74065.13
2023-05-11T06:11:55.701Z,74084.97
2023-05-11T06:16:59.168Z,74063.59
2023-05-11T06:22:05.855Z,74063.59
2023-05-11T06:27:09.380Z,74048.34
2023-05-11T06:32:11.114Z,74051.41
2023-05-11T06:37:20.461Z,74051.41
2023-05-11T06:42:24.652Z,74051.41
2023-05-11T06:47:26.844Z,74039.19
2023-05-11T06:52:28.626Z,74036.13
2023-05-11T06:57:30.146Z,74043.75
2023-05-11T07:02:31.839Z,74043.75
2023-05-11T07:07:33.336Z,73944.19
2023-05-11T07:12:34.894Z,74007.16
2023-05-11T07:17:36.375Z,74020.88
2023-05-11T07:22:37.830Z,74017.81
2023-05-11T07:27:39.327Z,74008.66
2023-05-11T07:32:40.881Z,73985.78
2023-05-11T07:37:42.691Z,73981.22
2023-05-11T07:42:44.339Z,73981.22
2023-05-11T07:47:46.014Z,73969.00
2023-05-11T07:52:47.667Z,73985.78
2023-05-11T07:57:49.159Z,73965.94
2023-05-11T08:07:52.105Z,73933.91
2023-05-11T08:12:53.585Z,73898.81
2023-05-11T08:17:55.397Z,73892.69
2023-05-11T08:22:57.782Z,73888.13
2023-05-11T08:27:59.249Z,73903.38
2023-05-11T08:33:00.838Z,73877.44
2023-05-11T08:38:02.386Z,73862.19
2023-05-11T08:43:05.637Z,73846.94
2023-05-11T08:48:07.335Z,73828.63
2023-05-11T08:53:08.855Z,73819.47
2023-05-11T08:58:10.958Z,73840.81
2023-05-11T09:03:13.081Z,73828.63
2023-05-11T09:08:17.243Z,73807.25
2023-05-11T09:13:18.836Z,73814.88
2023-05-11T09:18:20.724Z,73810.31
2023-05-11T09:23:26.917Z,73778.25
2023-05-11T09:33:36.902Z,73767.59
2023-05-11T09:38:38.458Z,73715.69
2023-05-11T09:43:40.045Z,73666.88
2023-05-11T09:48:41.585Z,73642.47
2023-05-11T09:53:45.357Z,73645.50
2023-05-11T09:58:57.549Z,73639.41
2023-05-11T10:04:17.842Z,73663.81
2023-05-11T10:09:25.280Z,73656.19
2023-05-11T10:14:27.537Z,73611.94
2023-05-11T10:19:29.232Z,73593.63
2023-05-11T10:24:32.429Z,73610.41
2023-05-11T10:29:34.419Z,73619.56
2023-05-11T10:34:36.787Z,73624.16
2023-05-11T10:39:39.856Z,73619.56
2023-05-11T10:45:03.093Z,73587.53
2023-05-11T10:50:34.025Z,73576.84
2023-05-11T10:55:52.471Z,73578.38
2023-05-11T11:01:06.262Z,73581.41
2023-05-11T11:06:22.629Z,73569.22
2023-05-11T11:11:32.276Z,73558.53
2023-05-11T11:16:33.923Z,73575.31
2023-05-11T11:21:42.604Z,73553.97
2023-05-11T11:26:50.583Z,73553.97
2023-05-11T11:31:52.167Z,73567.69
2023-05-11T11:37:03.519Z,73550.91
2023-05-11T11:42:13.036Z,73499.03
2023-05-11T11:47:16.115Z,73468.50
2023-05-11T11:52:26.645Z,73503.59
2023-05-11T11:57:43.950Z,73505.13
2023-05-11T12:02:45.821Z,73526.50
2023-05-11T12:07:50.529Z,73531.06
2023-05-11T12:12:58.583Z,73531.06
2023-05-11T12:18:03.118Z,73517.34
2023-05-11T12:23:04.674Z,73534.13
2023-05-11T12:28:06.564Z,73523.44
2023-05-11T12:33:08.267Z,73523.44
2023-05-11T12:38:10.980Z,73534.13
2023-05-11T12:43:17.850Z,73561.59
2023-05-11T12:48:19.473Z,73572.28
2023-05-11T12:53:22.079Z,73581.41
2023-05-11T12:58:23.616Z,73582.94
2023-05-11T13:03:34.079Z,73569.22
2023-05-11T13:08:46.400Z,73549.38
2023-05-11T13:13:51.683Z,73547.84
2023-05-11T13:18:59.147Z,73546.31
2023-05-11T13:24:01.969Z,73557.00
2023-05-11T13:29:10.866Z,73541.75
2023-05-11T13:34:12.949Z,73532.59
2023-05-11T13:39:14.563Z,73538.69
2023-05-11T13:44:16.117Z,73578.38
2023-05-11T13:49:17.700Z,73589.06
2023-05-11T13:54:19.297Z,73572.28
2023-05-11T13:59:21.320Z,73547.84
2023-05-11T14:04:22.908Z,73532.59
2023-05-11T14:09:24.450Z,73560.06
2023-05-11T14:14:26.205Z,73564.63
2023-05-11T14:19:27.765Z,73563.13
2023-05-11T14:24:29.320Z,73569.22
2023-05-11T14:29:30.854Z,73544.81
2023-05-11T14:34:32.307Z,73572.28
2023-05-11T14:39:33.777Z,73550.91
2023-05-11T14:44:35.335Z,73532.59
2023-05-11T14:49:36.954Z,73543.28
2023-05-11T14:54:38.516Z,73566.16
2023-05-11T14:59:51.064Z,73569.22
2023-05-11T15:04:59.674Z,73573.78
2023-05-11T15:10:02.182Z,73569.22
2023-05-11T15:15:04.630Z,73563.13
2023-05-11T15:20:07.212Z,73569.22
2023-05-11T15:25:09.267Z,73567.69
2023-05-11T15:30:11.217Z,73586.00
2023-05-11T15:35:14.230Z,73636.34
2023-05-11T15:40:16.210Z,73645.50
2023-05-11T15:45:18.336Z,73669.94
2023-05-11T15:50:20.488Z,73676.03
2023-05-11T15:55:23.360Z,73671.44
2023-05-11T16:00:24.822Z,73668.41
2023-05-11T16:05:26.798Z,73676.03
2023-05-11T16:10:28.338Z,73691.28
2023-05-11T16:15:31.153Z,73700.44
2023-05-11T16:20:32.952Z,73698.91
2023-05-11T16:25:34.475Z,73705.03
2023-05-11T16:30:36.392Z,73697.38
2023-05-11T16:35:37.880Z,73709.59
2023-05-11T16:40:39.356Z,73718.75
2023-05-11T16:45:40.862Z,73718.75
2023-05-11T16:50:43.011Z,73709.59
2023-05-11T16:55:44.490Z,73717.22
2023-05-11T17:00:45.971Z,73715.69
2023-05-11T17:05:47.596Z,73715.69
2023-05-11T17:10:49.106Z,73721.81
2023-05-11T17:15:51.439Z,73749.28
2023-05-11T17:20:56.724Z,73758.44
2023-05-11T17:25:59.160Z,73759.94
2023-05-11T17:31:11.558Z,73763.00
2023-05-11T17:36:13.221Z,73772.16
2023-05-11T17:41:15.453Z,73788.94
2023-05-11T17:46:17.133Z,73792.00
2023-05-11T17:51:20.211Z,73798.09
2023-05-11T17:56:22.301Z,73810.31
2023-05-11T18:01:23.834Z,73821.00
2023-05-11T18:06:25.605Z,73825.56
2023-05-11T18:11:27.642Z,73830.16
2023-05-11T18:16:29.176Z,73831.66
2023-05-11T18:21:31.110Z,73845.41
2023-05-11T18:26:32.602Z,73840.81
2023-05-11T18:31:34.179Z,73849.97
2023-05-11T18:36:35.705Z,73865.25
2023-05-11T18:41:37.245Z,73869.81
2023-05-11T18:46:38.800Z,73868.28
2023-05-11T18:51:40.761Z,73880.50
2023-05-11T18:56:42.655Z,73874.41
2023-05-11T19:01:47.896Z,73871.34
2023-05-11T19:06:50.024Z,73874.41
2023-05-11T19:11:51.531Z,73877.44
2023-05-11T19:16:53.060Z,73880.50
2023-05-11T19:21:54.533Z,73871.34
2023-05-11T19:27:06.752Z,73888.13
2023-05-11T19:32:09.612Z,73891.19
2023-05-11T19:37:11.416Z,73894.22
2023-05-11T19:42:12.920Z,73895.75
2023-05-11T19:47:14.569Z,73892.69
2023-05-11T19:52:16.302Z,73886.59
2023-05-11T19:57:18.425Z,73898.81
2023-05-11T20:02:20.024Z,73904.91
2023-05-11T20:07:24.825Z,73912.53
2023-05-11T20:12:26.370Z,73920.16
2023-05-11T20:17:31.208Z,73927.81
2023-05-11T20:22:32.763Z,73926.28
2023-05-11T20:27:34.500Z,73933.91
2023-05-11T20:32:37.219Z,73932.38
2023-05-11T20:37:39.703Z,73933.91
2023-05-11T20:42:41.363Z,73941.53
2023-05-11T20:47:42.958Z,73941.53
2023-05-11T20:52:44.573Z,73938.47
2023-05-11T20:57:46.081Z,73936.94
2023-05-11T21:02:47.732Z,73943.06
2023-05-11T21:07:49.303Z,73944.59
2023-05-11T21:12:50.949Z,73950.69
2023-05-11T21:17:53.124Z,73950.69
2023-05-11T21:22:54.679Z,73944.59
2023-05-11T21:27:56.311Z,73935.44
2023-05-11T21:32:57.918Z,73929.31
2023-05-11T21:37:59.446Z,73936.94
2023-05-11T21:43:00.996Z,73935.44
2023-05-11T21:48:02.513Z,73932.38
2023-05-11T21:53:04.784Z,73933.91
2023-05-11T21:58:06.342Z,73932.38
2023-05-11T22:03:08.237Z,73944.59
2023-05-11T22:08:15.105Z,73941.53
2023-05-11T22:13:17.140Z,73936.94
2023-05-11T22:18:18.790Z,73933.91
2023-05-11T22:23:21.124Z,73940.00
2023-05-11T22:28:22.864Z,73938.47
2023-05-11T22:33:24.517Z,73929.31
2023-05-11T22:38:26.073Z,73927.81
2023-05-11T22:43:27.706Z,73932.38
2023-05-11T22:48:29.348Z,73929.31
2023-05-11T22:53:31.212Z,73930.84
2023-05-11T22:58:33.190Z,73927.81
2023-05-11T23:03:34.726Z,59042.03
2023-05-11T23:08:36.311Z,59042.03
2023-05-11T23:13:38.223Z,59042.03
2023-05-11T23:18:39.941Z,59042.03
2023-05-11T23:23:44.474Z,59042.03
2023-05-11T23:28:46.163Z,59042.03
2023-05-11T23:33:47.694Z,59042.03
2023-05-11T23:38:49.445Z,59042.03
2023-05-11T23:43:50.985Z,59042.03
2023-05-11T23:48:52.505Z,59042.03
2023-05-11T23:53:54.096Z,59042.03
2023-05-11T23:58:55.629Z,59042.03
